sensor_id;sensor_type;location;lat;lon;timestamp;temperature;humidity
7117;DHT22;3600;48.568;7.870;2023-05-07T00:01:48;14.10;99.90
7117;DHT22;3600;48.568;7.870;2023-05-07T00:04:15;14.10;99.90
7117;DHT22;3600;48.568;7.870;2023-05-07T00:06:42;14.20;99.90
7117;DHT22;3600;48.568;7.870;2023-05-07T00:09:09;14.20;99.90
7117;DHT22;3600;48.568;7.870;2023-05-07T00:11:35;14.10;99.90
7117;DHT22;3600;48.568;7.870;2023-05-07T00:14:02;14.10;99.90
7117;DHT22;3600;48.568;7.870;2023-05-07T00:16:30;14.00;99.90
7117;DHT22;3600;48.568;7.870;2023-05-07T00:18:57;14.10;99.90
7117;DHT22;3600;48.568;7.870;2023-05-07T00:21:24;14.10;99.90
7117;DHT22;3600;48.568;7.870;2023-05-07T00:23:54;14.10;99.90
7117;DHT22;3600;48.568;7.870;2023-05-07T00:26:20;14.10;99.90
7117;DHT22;3600;48.568;7.870;2023-05-07T00:28:47;14.10;99.90
7117;DHT22;3600;48.568;7.870;2023-05-07T00:31:14;14.00;99.90
7117;DHT22;3600;48.568;7.870;2023-05-07T00:33:40;13.90;99.90
7117;DHT22;3600;48.568;7.870;2023-05-07T00:36:07;13.90;99.90
7117;DHT22;3600;48.568;7.870;2023-05-07T00:38:34;13.90;99.90
7117;DHT22;3600;48.568;7.870;2023-05-07T00:41:01;13.90;99.90
7117;DHT22;3600;48.568;7.870;2023-05-07T00:43:28;13.80;99.90
7117;DHT22;3600;48.568;7.870;2023-05-07T00:45:56;13.90;99.90
7117;DHT22;3600;48.568;7.870;2023-05-07T00:48:22;13.90;99.90
7117;DHT22;3600;48.568;7.870;2023-05-07T00:50:50;13.90;99.90
7117;DHT22;3600;48.568;7.870;2023-05-07T00:53:17;13.90;99.90
7117;DHT22;3600;48.568;7.870;2023-05-07T00:55:44;13.80;99.90
7117;DHT22;3600;48.568;7.870;2023-05-07T00:58:11;13.70;99.90
7117;DHT22;3600;48.568;7.870;2023-05-07T01:00:38;13.70;99.90
7117;DHT22;3600;48.568;7.870;2023-05-07T01:03:05;13.70;99.90
7117;DHT22;3600;48.568;7.870;2023-05-07T01:05:32;13.70;99.90
7117;DHT22;3600;48.568;7.870;2023-05-07T01:08:01;13.70;99.90
7117;DHT22;3600;48.568;7.870;2023-05-07T01:10:29;13.60;99.90
7117;DHT22;3600;48.568;7.870;2023-05-07T01:12:58;13.50;99.90
7117;DHT22;3600;48.568;7.870;2023-05-07T01:15:26;13.60;99.90
7117;DHT22;3600;48.568;7.870;2023-05-07T01:17:52;13.70;99.90
7117;DHT22;3600;48.568;7.870;2023-05-07T01:20:19;13.70;99.90
7117;DHT22;3600;48.568;7.870;2023-05-07T01:22:47;13.70;99.90
7117;DHT22;3600;48.568;7.870;2023-05-07T01:25:14;13.70;99.90
7117;DHT22;3600;48.568;7.870;2023-05-07T01:27:42;13.70;99.90
7117;DHT22;3600;48.568;7.870;2023-05-07T01:30:09;13.60;99.90
7117;DHT22;3600;48.568;7.870;2023-05-07T01:35:18;13.60;99.90
7117;DHT22;3600;48.568;7.870;2023-05-07T01:37:47;13.60;99.90
7117;DHT22;3600;48.568;7.870;2023-05-07T01:40:14;13.50;99.90
7117;DHT22;3600;48.568;7.870;2023-05-07T01:42:43;13.30;99.90
7117;DHT22;3600;48.568;7.870;2023-05-07T01:45:10;12.90;99.90
7117;DHT22;3600;48.568;7.870;2023-05-07T01:47:37;13.00;99.90
7117;DHT22;3600;48.568;7.870;2023-05-07T01:50:06;13.10;99.90
7117;DHT22;3600;48.568;7.870;2023-05-07T01:52:37;13.00;99.90
7117;DHT22;3600;48.568;7.870;2023-05-07T01:55:05;13.20;99.90
7117;DHT22;3600;48.568;7.870;2023-05-07T01:57:32;13.20;99.90
7117;DHT22;3600;48.568;7.870;2023-05-07T01:59:59;13.10;99.90
7117;DHT22;3600;48.568;7.870;2023-05-07T02:02:26;13.10;99.90
7117;DHT22;3600;48.568;7.870;2023-05-07T02:04:53;13.20;99.90
7117;DHT22;3600;48.568;7.870;2023-05-07T02:07:20;13.30;99.90
7117;DHT22;3600;48.568;7.870;2023-05-07T02:09:46;13.00;99.90
7117;DHT22;3600;48.568;7.870;2023-05-07T02:12:13;13.10;99.90
7117;DHT22;3600;48.568;7.870;2023-05-07T02:14:40;13.30;99.90
7117;DHT22;3600;48.568;7.870;2023-05-07T02:17:07;13.30;99.90
7117;DHT22;3600;48.568;7.870;2023-05-07T02:19:34;13.10;99.90
7117;DHT22;3600;48.568;7.870;2023-05-07T02:22:00;13.00;99.90
7117;DHT22;3600;48.568;7.870;2023-05-07T02:24:27;13.00;99.90
7117;DHT22;3600;48.568;7.870;2023-05-07T02:26:54;12.90;99.90
7117;DHT22;3600;48.568;7.870;2023-05-07T02:29:21;12.80;99.90
7117;DHT22;3600;48.568;7.870;2023-05-07T02:31:47;13.00;99.90
7117;DHT22;3600;48.568;7.870;2023-05-07T02:34:19;13.20;99.90
7117;DHT22;3600;48.568;7.870;2023-05-07T02:36:46;13.40;99.90
7117;DHT22;3600;48.568;7.870;2023-05-07T02:39:13;13.40;99.90
7117;DHT22;3600;48.568;7.870;2023-05-07T02:41:40;13.30;99.90
7117;DHT22;3600;48.568;7.870;2023-05-07T02:44:06;13.10;99.90
7117;DHT22;3600;48.568;7.870;2023-05-07T02:46:33;13.20;99.90
7117;DHT22;3600;48.568;7.870;2023-05-07T02:49:00;13.20;99.90
7117;DHT22;3600;48.568;7.870;2023-05-07T02:51:27;13.00;99.90
7117;DHT22;3600;48.568;7.870;2023-05-07T02:53:54;12.90;99.90
7117;DHT22;3600;48.568;7.870;2023-05-07T02:56:21;12.90;99.90
7117;DHT22;3600;48.568;7.870;2023-05-07T02:58:48;12.90;99.90
7117;DHT22;3600;48.568;7.870;2023-05-07T03:01:15;12.80;99.90
7117;DHT22;3600;48.568;7.870;2023-05-07T03:03:41;13.00;99.90
7117;DHT22;3600;48.568;7.870;2023-05-07T03:06:08;13.00;99.90
7117;DHT22;3600;48.568;7.870;2023-05-07T03:08:35;12.80;99.90
7117;DHT22;3600;48.568;7.870;2023-05-07T03:11:02;12.70;99.90
7117;DHT22;3600;48.568;7.870;2023-05-07T03:13:29;12.70;99.90
7117;DHT22;3600;48.568;7.870;2023-05-07T03:15:56;12.70;99.90
7117;DHT22;3600;48.568;7.870;2023-05-07T03:18:23;12.60;99.90
7117;DHT22;3600;48.568;7.870;2023-05-07T03:20:51;12.70;99.90
7117;DHT22;3600;48.568;7.870;2023-05-07T03:23:18;12.90;99.90
7117;DHT22;3600;48.568;7.870;2023-05-07T03:25:45;13.10;99.90
7117;DHT22;3600;48.568;7.870;2023-05-07T03:28:12;13.00;99.90
7117;DHT22;3600;48.568;7.870;2023-05-07T03:30:38;12.80;99.90
7117;DHT22;3600;48.568;7.870;2023-05-07T03:33:05;12.90;99.90
7117;DHT22;3600;48.568;7.870;2023-05-07T03:35:32;13.10;99.90
7117;DHT22;3600;48.568;7.870;2023-05-07T03:37:59;13.00;99.90
7117;DHT22;3600;48.568;7.870;2023-05-07T03:40:25;13.00;99.90
7117;DHT22;3600;48.568;7.870;2023-05-07T03:42:52;13.10;99.90
7117;DHT22;3600;48.568;7.870;2023-05-07T03:45:19;13.00;99.90
7117;DHT22;3600;48.568;7.870;2023-05-07T03:47:46;13.00;99.90
7117;DHT22;3600;48.568;7.870;2023-05-07T03:50:13;13.00;99.90
7117;DHT22;3600;48.568;7.870;2023-05-07T03:52:39;13.00;99.90
7117;DHT22;3600;48.568;7.870;2023-05-07T03:55:07;13.10;99.90
7117;DHT22;3600;48.568;7.870;2023-05-07T03:57:34;13.10;99.90
7117;DHT22;3600;48.568;7.870;2023-05-07T04:00:00;13.10;99.90
7117;DHT22;3600;48.568;7.870;2023-05-07T04:02:27;13.10;99.90
7117;DHT22;3600;48.568;7.870;2023-05-07T04:04:55;12.90;99.90
7117;DHT22;3600;48.568;7.870;2023-05-07T04:07:22;12.70;99.90
7117;DHT22;3600;48.568;7.870;2023-05-07T04:09:49;12.60;99.90
7117;DHT22;3600;48.568;7.870;2023-05-07T04:12:16;12.60;99.90
7117;DHT22;3600;48.568;7.870;2023-05-07T04:14:42;12.40;99.90
7117;DHT22;3600;48.568;7.870;2023-05-07T04:17:09;12.30;99.90
7117;DHT22;3600;48.568;7.870;2023-05-07T04:19:37;12.00;99.90
7117;DHT22;3600;48.568;7.870;2023-05-07T04:22:03;12.00;99.90
7117;DHT22;3600;48.568;7.870;2023-05-07T04:24:33;12.10;99.90
7117;DHT22;3600;48.568;7.870;2023-05-07T04:27:00;12.30;99.90
7117;DHT22;3600;48.568;7.870;2023-05-07T04:29:28;12.40;99.90
7117;DHT22;3600;48.568;7.870;2023-05-07T04:31:55;12.60;99.90
7117;DHT22;3600;48.568;7.870;2023-05-07T04:34:23;12.70;99.90
7117;DHT22;3600;48.568;7.870;2023-05-07T04:36:49;12.70;99.90
7117;DHT22;3600;48.568;7.870;2023-05-07T04:39:16;12.80;99.90
7117;DHT22;3600;48.568;7.870;2023-05-07T04:41:43;12.80;99.90
7117;DHT22;3600;48.568;7.870;2023-05-07T04:44:10;12.90;99.90
7117;DHT22;3600;48.568;7.870;2023-05-07T04:46:37;12.90;99.90
7117;DHT22;3600;48.568;7.870;2023-05-07T04:49:04;12.60;99.90
7117;DHT22;3600;48.568;7.870;2023-05-07T04:51:30;12.50;99.90
7117;DHT22;3600;48.568;7.870;2023-05-07T04:53:59;12.50;99.90
7117;DHT22;3600;48.568;7.870;2023-05-07T04:56:28;12.70;99.90
7117;DHT22;3600;48.568;7.870;2023-05-07T04:58:56;12.80;99.90
7117;DHT22;3600;48.568;7.870;2023-05-07T05:01:23;13.00;99.90
7117;DHT22;3600;48.568;7.870;2023-05-07T05:03:50;13.10;99.90
7117;DHT22;3600;48.568;7.870;2023-05-07T05:06:17;13.00;99.90
7117;DHT22;3600;48.568;7.870;2023-05-07T05:08:43;13.00;99.90
7117;DHT22;3600;48.568;7.870;2023-05-07T05:11:10;13.20;99.90
7117;DHT22;3600;48.568;7.870;2023-05-07T05:13:37;13.20;99.90
7117;DHT22;3600;48.568;7.870;2023-05-07T05:16:04;13.10;99.90
7117;DHT22;3600;48.568;7.870;2023-05-07T05:18:30;13.10;99.90
7117;DHT22;3600;48.568;7.870;2023-05-07T05:20:57;13.20;99.90
7117;DHT22;3600;48.568;7.870;2023-05-07T05:23:24;13.40;99.90
7117;DHT22;3600;48.568;7.870;2023-05-07T05:25:55;13.40;99.90
7117;DHT22;3600;48.568;7.870;2023-05-07T05:28:23;13.50;99.90
7117;DHT22;3600;48.568;7.870;2023-05-07T05:30:50;13.60;99.90
7117;DHT22;3600;48.568;7.870;2023-05-07T05:33:17;13.70;99.90
7117;DHT22;3600;48.568;7.870;2023-05-07T05:35:43;13.70;99.90
7117;DHT22;3600;48.568;7.870;2023-05-07T05:38:11;13.90;99.90
7117;DHT22;3600;48.568;7.870;2023-05-07T05:40:37;13.90;99.90
7117;DHT22;3600;48.568;7.870;2023-05-07T05:43:05;13.90;99.90
7117;DHT22;3600;48.568;7.870;2023-05-07T05:45:32;14.00;99.90
7117;DHT22;3600;48.568;7.870;2023-05-07T05:47:58;14.00;99.90
7117;DHT22;3600;48.568;7.870;2023-05-07T05:50:25;14.00;99.90
7117;DHT22;3600;48.568;7.870;2023-05-07T05:52:52;14.10;99.90
7117;DHT22;3600;48.568;7.870;2023-05-07T05:55:19;14.10;99.90
7117;DHT22;3600;48.568;7.870;2023-05-07T05:57:46;14.10;99.90
7117;DHT22;3600;48.568;7.870;2023-05-07T06:00:13;14.20;99.90
7117;DHT22;3600;48.568;7.870;2023-05-07T06:02:40;14.30;99.90
7117;DHT22;3600;48.568;7.870;2023-05-07T06:05:07;14.40;99.90
7117;DHT22;3600;48.568;7.870;2023-05-07T06:07:34;14.30;99.90
7117;DHT22;3600;48.568;7.870;2023-05-07T06:10:01;14.30;99.90
7117;DHT22;3600;48.568;7.870;2023-05-07T06:12:28;14.30;99.90
7117;DHT22;3600;48.568;7.870;2023-05-07T06:14:54;14.40;99.90
7117;DHT22;3600;48.568;7.870;2023-05-07T06:17:21;14.30;99.90
7117;DHT22;3600;48.568;7.870;2023-05-07T06:19:48;14.30;99.90
7117;DHT22;3600;48.568;7.870;2023-05-07T06:22:14;14.40;99.90
7117;DHT22;3600;48.568;7.870;2023-05-07T06:24:41;14.40;99.90
7117;DHT22;3600;48.568;7.870;2023-05-07T06:27:08;14.40;99.90
7117;DHT22;3600;48.568;7.870;2023-05-07T06:29:35;14.50;99.90
7117;DHT22;3600;48.568;7.870;2023-05-07T06:32:12;14.50;99.90
7117;DHT22;3600;48.568;7.870;2023-05-07T06:34:40;14.50;99.90
7117;DHT22;3600;48.568;7.870;2023-05-07T06:37:07;14.50;99.90
7117;DHT22;3600;48.568;7.870;2023-05-07T06:39:34;14.50;99.90
7117;DHT22;3600;48.568;7.870;2023-05-07T06:42:01;14.60;99.90
7117;DHT22;3600;48.568;7.870;2023-05-07T06:44:28;14.60;99.90
7117;DHT22;3600;48.568;7.870;2023-05-07T06:46:55;14.60;99.90
7117;DHT22;3600;48.568;7.870;2023-05-07T06:49:22;14.60;99.90
7117;DHT22;3600;48.568;7.870;2023-05-07T06:51:49;14.60;99.90
7117;DHT22;3600;48.568;7.870;2023-05-07T06:54:16;14.60;99.90
7117;DHT22;3600;48.568;7.870;2023-05-07T06:56:42;14.60;99.90
7117;DHT22;3600;48.568;7.870;2023-05-07T06:59:09;14.50;99.90
7117;DHT22;3600;48.568;7.870;2023-05-07T07:01:36;14.60;99.90
7117;DHT22;3600;48.568;7.870;2023-05-07T07:04:03;14.70;99.90
7117;DHT22;3600;48.568;7.870;2023-05-07T07:06:30;14.80;99.90
7117;DHT22;3600;48.568;7.870;2023-05-07T07:08:59;14.90;99.90
7117;DHT22;3600;48.568;7.870;2023-05-07T07:11:26;15.00;99.90
7117;DHT22;3600;48.568;7.870;2023-05-07T07:13:53;15.00;99.90
7117;DHT22;3600;48.568;7.870;2023-05-07T07:16:21;14.90;99.90
7117;DHT22;3600;48.568;7.870;2023-05-07T07:18:48;15.00;99.90
7117;DHT22;3600;48.568;7.870;2023-05-07T07:21:15;15.10;99.90
7117;DHT22;3600;48.568;7.870;2023-05-07T07:23:42;15.10;99.90
7117;DHT22;3600;48.568;7.870;2023-05-07T07:26:08;15.20;99.90
7117;DHT22;3600;48.568;7.870;2023-05-07T07:28:42;15.20;99.90
7117;DHT22;3600;48.568;7.870;2023-05-07T07:31:11;15.30;99.90
7117;DHT22;3600;48.568;7.870;2023-05-07T07:33:38;15.40;99.90
7117;DHT22;3600;48.568;7.870;2023-05-07T07:36:05;15.50;99.90
7117;DHT22;3600;48.568;7.870;2023-05-07T07:38:33;15.60;99.90
7117;DHT22;3600;48.568;7.870;2023-05-07T07:41:01;15.60;99.90
7117;DHT22;3600;48.568;7.870;2023-05-07T07:43:28;15.70;99.90
7117;DHT22;3600;48.568;7.870;2023-05-07T07:45:55;15.80;99.90
7117;DHT22;3600;48.568;7.870;2023-05-07T07:48:21;16.00;99.90
7117;DHT22;3600;48.568;7.870;2023-05-07T07:50:49;16.20;99.90
7117;DHT22;3600;48.568;7.870;2023-05-07T07:53:18;16.30;99.90
7117;DHT22;3600;48.568;7.870;2023-05-07T07:55:45;16.40;99.90
7117;DHT22;3600;48.568;7.870;2023-05-07T07:58:12;16.40;99.90
7117;DHT22;3600;48.568;7.870;2023-05-07T08:00:38;16.10;99.90
7117;DHT22;3600;48.568;7.870;2023-05-07T08:03:05;16.30;99.90
7117;DHT22;3600;48.568;7.870;2023-05-07T08:05:34;16.40;99.90
7117;DHT22;3600;48.568;7.870;2023-05-07T08:08:00;16.50;99.90
7117;DHT22;3600;48.568;7.870;2023-05-07T08:10:27;16.70;99.90
7117;DHT22;3600;48.568;7.870;2023-05-07T08:12:54;16.80;99.90
7117;DHT22;3600;48.568;7.870;2023-05-07T08:15:21;16.80;99.90
7117;DHT22;3600;48.568;7.870;2023-05-07T08:17:48;16.90;99.90
7117;DHT22;3600;48.568;7.870;2023-05-07T08:20:14;17.00;99.90
7117;DHT22;3600;48.568;7.870;2023-05-07T08:22:41;17.20;99.90
7117;DHT22;3600;48.568;7.870;2023-05-07T08:25:08;17.40;99.90
7117;DHT22;3600;48.568;7.870;2023-05-07T08:27:35;17.50;99.90
7117;DHT22;3600;48.568;7.870;2023-05-07T08:30:03;17.40;99.90
7117;DHT22;3600;48.568;7.870;2023-05-07T08:32:29;17.50;99.90
7117;DHT22;3600;48.568;7.870;2023-05-07T08:34:56;17.60;99.90
7117;DHT22;3600;48.568;7.870;2023-05-07T08:37:23;17.70;99.90
7117;DHT22;3600;48.568;7.870;2023-05-07T08:39:50;17.60;99.90
7117;DHT22;3600;48.568;7.870;2023-05-07T08:42:17;17.70;99.90
7117;DHT22;3600;48.568;7.870;2023-05-07T08:44:45;17.80;99.90
7117;DHT22;3600;48.568;7.870;2023-05-07T08:47:15;17.80;99.90
7117;DHT22;3600;48.568;7.870;2023-05-07T08:49:42;18.00;99.90
7117;DHT22;3600;48.568;7.870;2023-05-07T08:52:12;18.10;99.90
7117;DHT22;3600;48.568;7.870;2023-05-07T08:54:39;18.20;99.90
7117;DHT22;3600;48.568;7.870;2023-05-07T08:57:06;18.30;99.90
7117;DHT22;3600;48.568;7.870;2023-05-07T08:59:33;18.40;99.90
7117;DHT22;3600;48.568;7.870;2023-05-07T09:02:00;18.40;99.90
7117;DHT22;3600;48.568;7.870;2023-05-07T09:04:27;18.60;99.90
7117;DHT22;3600;48.568;7.870;2023-05-07T09:06:54;18.70;99.90
7117;DHT22;3600;48.568;7.870;2023-05-07T09:09:22;18.70;99.90
7117;DHT22;3600;48.568;7.870;2023-05-07T09:11:56;18.80;99.90
7117;DHT22;3600;48.568;7.870;2023-05-07T09:14:24;18.70;99.90
7117;DHT22;3600;48.568;7.870;2023-05-07T09:16:52;18.80;99.90
7117;DHT22;3600;48.568;7.870;2023-05-07T09:19:23;18.80;99.90
7117;DHT22;3600;48.568;7.870;2023-05-07T09:21:58;19.00;99.90
7117;DHT22;3600;48.568;7.870;2023-05-07T09:24:26;19.10;99.90
7117;DHT22;3600;48.568;7.870;2023-05-07T09:26:55;19.10;99.90
7117;DHT22;3600;48.568;7.870;2023-05-07T09:29:24;19.10;99.90
7117;DHT22;3600;48.568;7.870;2023-05-07T09:31:51;19.20;99.90
7117;DHT22;3600;48.568;7.870;2023-05-07T09:34:18;19.30;99.90
7117;DHT22;3600;48.568;7.870;2023-05-07T09:36:45;19.40;99.90
7117;DHT22;3600;48.568;7.870;2023-05-07T09:39:11;19.40;99.90
7117;DHT22;3600;48.568;7.870;2023-05-07T09:41:49;19.50;99.90
7117;DHT22;3600;48.568;7.870;2023-05-07T09:44:21;19.50;99.90
7117;DHT22;3600;48.568;7.870;2023-05-07T09:46:54;19.60;99.90
7117;DHT22;3600;48.568;7.870;2023-05-07T09:49:23;19.60;99.90
7117;DHT22;3600;48.568;7.870;2023-05-07T09:51:52;19.70;99.90
7117;DHT22;3600;48.568;7.870;2023-05-07T09:54:19;19.70;99.90
7117;DHT22;3600;48.568;7.870;2023-05-07T09:56:48;19.80;99.90
7117;DHT22;3600;48.568;7.870;2023-05-07T09:59:16;19.80;99.90
7117;DHT22;3600;48.568;7.870;2023-05-07T10:01:44;20.00;99.90
7117;DHT22;3600;48.568;7.870;2023-05-07T10:04:11;19.90;99.90
7117;DHT22;3600;48.568;7.870;2023-05-07T10:06:39;20.10;99.90
7117;DHT22;3600;48.568;7.870;2023-05-07T10:09:07;20.20;99.90
7117;DHT22;3600;48.568;7.870;2023-05-07T10:11:34;20.30;99.90
7117;DHT22;3600;48.568;7.870;2023-05-07T10:14:05;20.20;99.90
7117;DHT22;3600;48.568;7.870;2023-05-07T10:16:33;20.20;99.90
7117;DHT22;3600;48.568;7.870;2023-05-07T10:19:07;20.20;99.90
7117;DHT22;3600;48.568;7.870;2023-05-07T10:21:36;20.10;99.90
7117;DHT22;3600;48.568;7.870;2023-05-07T10:24:12;20.30;99.90
7117;DHT22;3600;48.568;7.870;2023-05-07T10:26:44;20.40;99.90
7117;DHT22;3600;48.568;7.870;2023-05-07T10:29:20;20.40;99.90
7117;DHT22;3600;48.568;7.870;2023-05-07T10:31:55;20.40;99.90
7117;DHT22;3600;48.568;7.870;2023-05-07T10:34:32;20.40;99.90
7117;DHT22;3600;48.568;7.870;2023-05-07T10:37:02;20.40;99.90
7117;DHT22;3600;48.568;7.870;2023-05-07T10:39:30;20.50;99.90
7117;DHT22;3600;48.568;7.870;2023-05-07T10:42:07;20.60;99.90
7117;DHT22;3600;48.568;7.870;2023-05-07T10:44:34;20.60;99.90
7117;DHT22;3600;48.568;7.870;2023-05-07T10:49:46;20.90;99.90
7117;DHT22;3600;48.568;7.870;2023-05-07T10:52:24;21.00;99.90
7117;DHT22;3600;48.568;7.870;2023-05-07T10:57:46;20.90;99.90
7117;DHT22;3600;48.568;7.870;2023-05-07T11:03:05;21.00;99.90
7117;DHT22;3600;48.568;7.870;2023-05-07T11:05:33;21.20;99.90
7117;DHT22;3600;48.568;7.870;2023-05-07T11:08:05;21.20;99.90
7117;DHT22;3600;48.568;7.870;2023-05-07T11:10:51;21.60;99.90
7117;DHT22;3600;48.568;7.870;2023-05-07T11:13:19;21.70;99.90
7117;DHT22;3600;48.568;7.870;2023-05-07T11:16:08;21.80;99.90
7117;DHT22;3600;48.568;7.870;2023-05-07T11:18:47;21.90;99.90
7117;DHT22;3600;48.568;7.870;2023-05-07T11:21:38;21.90;99.90
7117;DHT22;3600;48.568;7.870;2023-05-07T11:24:06;21.80;99.90
7117;DHT22;3600;48.568;7.870;2023-05-07T11:26:49;21.90;99.90
7117;DHT22;3600;48.568;7.870;2023-05-07T11:29:20;21.80;99.90
7117;DHT22;3600;48.568;7.870;2023-05-07T11:31:53;21.90;99.90
7117;DHT22;3600;48.568;7.870;2023-05-07T11:34:25;21.80;99.90
7117;DHT22;3600;48.568;7.870;2023-05-07T11:36:52;21.80;99.90
7117;DHT22;3600;48.568;7.870;2023-05-07T11:39:32;21.90;99.90
7117;DHT22;3600;48.568;7.870;2023-05-07T11:42:02;22.00;99.90
7117;DHT22;3600;48.568;7.870;2023-05-07T11:44:43;22.00;99.90
7117;DHT22;3600;48.568;7.870;2023-05-07T11:47:10;22.00;99.90
7117;DHT22;3600;48.568;7.870;2023-05-07T11:49:37;21.90;99.90
7117;DHT22;3600;48.568;7.870;2023-05-07T11:52:04;21.80;99.90
7117;DHT22;3600;48.568;7.870;2023-05-07T11:54:36;21.80;99.90
7117;DHT22;3600;48.568;7.870;2023-05-07T11:57:03;21.80;99.90
7117;DHT22;3600;48.568;7.870;2023-05-07T11:59:30;21.70;99.90
7117;DHT22;3600;48.568;7.870;2023-05-07T12:02:04;21.60;99.90
7117;DHT22;3600;48.568;7.870;2023-05-07T12:04:31;21.60;99.90
7117;DHT22;3600;48.568;7.870;2023-05-07T12:06:57;21.60;99.90
7117;DHT22;3600;48.568;7.870;2023-05-07T12:09:24;21.60;99.90
7117;DHT22;3600;48.568;7.870;2023-05-07T12:11:52;21.60;99.90
7117;DHT22;3600;48.568;7.870;2023-05-07T12:14:19;21.60;99.90
7117;DHT22;3600;48.568;7.870;2023-05-07T12:16:46;21.50;99.90
7117;DHT22;3600;48.568;7.870;2023-05-07T12:19:13;21.50;99.90
7117;DHT22;3600;48.568;7.870;2023-05-07T12:21:41;21.50;99.90
7117;DHT22;3600;48.568;7.870;2023-05-07T12:24:10;21.50;99.90
7117;DHT22;3600;48.568;7.870;2023-05-07T12:26:38;21.50;99.90
7117;DHT22;3600;48.568;7.870;2023-05-07T12:29:05;21.50;99.90
7117;DHT22;3600;48.568;7.870;2023-05-07T12:31:32;21.60;99.90
7117;DHT22;3600;48.568;7.870;2023-05-07T12:33:59;21.60;99.90
7117;DHT22;3600;48.568;7.870;2023-05-07T12:36:36;21.60;99.90
7117;DHT22;3600;48.568;7.870;2023-05-07T12:39:07;21.60;99.90
7117;DHT22;3600;48.568;7.870;2023-05-07T12:41:57;21.60;99.90
7117;DHT22;3600;48.568;7.870;2023-05-07T12:44:34;21.50;99.90
7117;DHT22;3600;48.568;7.870;2023-05-07T12:47:01;21.30;99.90
7117;DHT22;3600;48.568;7.870;2023-05-07T12:49:28;21.30;99.90
7117;DHT22;3600;48.568;7.870;2023-05-07T12:51:55;21.40;99.90
7117;DHT22;3600;48.568;7.870;2023-05-07T12:54:33;21.40;99.90
7117;DHT22;3600;48.568;7.870;2023-05-07T12:57:05;21.40;99.90
7117;DHT22;3600;48.568;7.870;2023-05-07T12:59:41;21.60;99.90
7117;DHT22;3600;48.568;7.870;2023-05-07T13:02:08;21.60;99.90
7117;DHT22;3600;48.568;7.870;2023-05-07T13:04:36;21.70;99.90
7117;DHT22;3600;48.568;7.870;2023-05-07T13:07:03;21.80;99.90
7117;DHT22;3600;48.568;7.870;2023-05-07T13:09:31;21.80;99.90
7117;DHT22;3600;48.568;7.870;2023-05-07T13:11:58;21.80;99.90
7117;DHT22;3600;48.568;7.870;2023-05-07T13:14:28;21.90;99.90
7117;DHT22;3600;48.568;7.870;2023-05-07T13:16:54;22.00;99.90
7117;DHT22;3600;48.568;7.870;2023-05-07T13:19:21;21.90;99.90
7117;DHT22;3600;48.568;7.870;2023-05-07T13:21:48;21.80;99.90
7117;DHT22;3600;48.568;7.870;2023-05-07T13:24:16;21.70;99.90
7117;DHT22;3600;48.568;7.870;2023-05-07T13:26:42;21.60;99.90
7117;DHT22;3600;48.568;7.870;2023-05-07T13:29:11;21.60;99.90
7117;DHT22;3600;48.568;7.870;2023-05-07T13:31:38;21.50;99.90
7117;DHT22;3600;48.568;7.870;2023-05-07T13:34:09;21.60;99.90
7117;DHT22;3600;48.568;7.870;2023-05-07T13:36:36;21.70;99.90
7117;DHT22;3600;48.568;7.870;2023-05-07T13:39:06;21.80;99.90
7117;DHT22;3600;48.568;7.870;2023-05-07T13:41:33;21.80;99.90
7117;DHT22;3600;48.568;7.870;2023-05-07T13:44:00;21.70;99.90
7117;DHT22;3600;48.568;7.870;2023-05-07T13:46:26;21.80;99.90
7117;DHT22;3600;48.568;7.870;2023-05-07T13:48:53;21.80;99.90
7117;DHT22;3600;48.568;7.870;2023-05-07T13:51:20;21.80;99.90
7117;DHT22;3600;48.568;7.870;2023-05-07T13:53:47;21.90;99.90
7117;DHT22;3600;48.568;7.870;2023-05-07T13:56:14;21.80;99.90
7117;DHT22;3600;48.568;7.870;2023-05-07T13:58:41;21.70;99.90
7117;DHT22;3600;48.568;7.870;2023-05-07T14:01:22;21.50;99.90
7117;DHT22;3600;48.568;7.870;2023-05-07T14:03:48;21.40;99.90
7117;DHT22;3600;48.568;7.870;2023-05-07T14:06:15;21.40;99.90
7117;DHT22;3600;48.568;7.870;2023-05-07T14:08:42;21.20;99.90
7117;DHT22;3600;48.568;7.870;2023-05-07T14:11:09;21.10;99.90
7117;DHT22;3600;48.568;7.870;2023-05-07T14:13:35;21.10;99.90
7117;DHT22;3600;48.568;7.870;2023-05-07T14:16:04;21.10;99.90
7117;DHT22;3600;48.568;7.870;2023-05-07T14:18:30;21.00;99.90
7117;DHT22;3600;48.568;7.870;2023-05-07T14:20:57;21.00;99.90
7117;DHT22;3600;48.568;7.870;2023-05-07T14:23:24;20.80;99.90
7117;DHT22;3600;48.568;7.870;2023-05-07T14:25:53;20.70;99.90
7117;DHT22;3600;48.568;7.870;2023-05-07T14:28:20;20.80;99.90
7117;DHT22;3600;48.568;7.870;2023-05-07T14:30:47;20.80;99.90
7117;DHT22;3600;48.568;7.870;2023-05-07T14:33:13;20.70;99.90
7117;DHT22;3600;48.568;7.870;2023-05-07T14:35:40;20.70;99.90
7117;DHT22;3600;48.568;7.870;2023-05-07T14:38:07;20.70;99.90
7117;DHT22;3600;48.568;7.870;2023-05-07T14:40:34;20.60;99.90
7117;DHT22;3600;48.568;7.870;2023-05-07T14:43:00;20.60;99.90
7117;DHT22;3600;48.568;7.870;2023-05-07T14:45:27;20.60;99.90
7117;DHT22;3600;48.568;7.870;2023-05-07T14:47:54;20.60;99.90
7117;DHT22;3600;48.568;7.870;2023-05-07T14:50:21;20.60;99.90
7117;DHT22;3600;48.568;7.870;2023-05-07T14:52:48;20.80;99.90
7117;DHT22;3600;48.568;7.870;2023-05-07T14:55:14;21.00;99.90
7117;DHT22;3600;48.568;7.870;2023-05-07T14:57:41;20.80;99.90
7117;DHT22;3600;48.568;7.870;2023-05-07T15:00:08;20.90;99.90
7117;DHT22;3600;48.568;7.870;2023-05-07T15:02:36;20.80;99.90
7117;DHT22;3600;48.568;7.870;2023-05-07T15:05:03;20.90;99.90
7117;DHT22;3600;48.568;7.870;2023-05-07T15:07:30;20.70;99.90
7117;DHT22;3600;48.568;7.870;2023-05-07T15:09:59;20.80;99.90
7117;DHT22;3600;48.568;7.870;2023-05-07T15:12:26;20.90;99.90
7117;DHT22;3600;48.568;7.870;2023-05-07T15:14:52;20.50;99.90
7117;DHT22;3600;48.568;7.870;2023-05-07T15:17:19;20.40;99.90
7117;DHT22;3600;48.568;7.870;2023-05-07T15:19:46;20.60;99.90
7117;DHT22;3600;48.568;7.870;2023-05-07T15:22:12;20.80;99.90
7117;DHT22;3600;48.568;7.870;2023-05-07T15:24:40;21.00;99.90
7117;DHT22;3600;48.568;7.870;2023-05-07T15:27:07;21.00;99.90
7117;DHT22;3600;48.568;7.870;2023-05-07T15:29:34;20.80;99.90
7117;DHT22;3600;48.568;7.870;2023-05-07T15:32:00;20.70;99.90
7117;DHT22;3600;48.568;7.870;2023-05-07T15:34:27;20.50;99.90
7117;DHT22;3600;48.568;7.870;2023-05-07T15:36:55;20.90;99.90
7117;DHT22;3600;48.568;7.870;2023-05-07T15:39:23;20.80;99.90
7117;DHT22;3600;48.568;7.870;2023-05-07T15:41:50;20.80;99.90
7117;DHT22;3600;48.568;7.870;2023-05-07T15:44:17;20.80;99.90
7117;DHT22;3600;48.568;7.870;2023-05-07T15:46:44;20.90;99.90
7117;DHT22;3600;48.568;7.870;2023-05-07T15:49:10;21.00;99.90
7117;DHT22;3600;48.568;7.870;2023-05-07T15:51:37;20.90;99.90
7117;DHT22;3600;48.568;7.870;2023-05-07T15:54:04;20.70;99.90
7117;DHT22;3600;48.568;7.870;2023-05-07T15:56:31;20.80;99.90
7117;DHT22;3600;48.568;7.870;2023-05-07T15:58:59;20.70;99.90
7117;DHT22;3600;48.568;7.870;2023-05-07T16:01:26;20.80;99.90
7117;DHT22;3600;48.568;7.870;2023-05-07T16:03:53;20.80;99.90
7117;DHT22;3600;48.568;7.870;2023-05-07T16:06:20;21.20;99.90
7117;DHT22;3600;48.568;7.870;2023-05-07T16:08:47;21.10;99.90
7117;DHT22;3600;48.568;7.870;2023-05-07T16:11:14;21.10;99.90
7117;DHT22;3600;48.568;7.870;2023-05-07T16:13:41;20.90;99.90
7117;DHT22;3600;48.568;7.870;2023-05-07T16:16:07;20.50;99.90
7117;DHT22;3600;48.568;7.870;2023-05-07T16:18:35;20.50;99.90